createdAt,value
2019-04-04T00:28:29.808Z,8.30
2019-04-04T03:43:30.360Z,7.60
2019-04-04T04:18:21.788Z,6.80
2019-04-04T04:23:58.240Z,7.20
2019-04-04T04:55:46.380Z,7.30
2019-04-04T05:01:17.993Z,7.20
2019-04-04T05:50:05.754Z,6.90
2019-04-04T05:59:23.570Z,7.30
2019-04-04T06:04:55.339Z,7.30
2019-04-04T06:13:24.997Z,7.70
2019-04-04T06:15:59.380Z,7.70
2019-04-04T06:18:34.397Z,7.40
2019-04-04T06:21:03.317Z,7.40
2019-04-04T06:23:32.198Z,7.50
2019-04-04T06:26:38.168Z,7.50
2019-04-04T06:29:56.391Z,7.40
2019-04-04T06:32:45.190Z,7.50
2019-04-04T06:35:15.572Z,7.30
2019-04-04T06:37:46.192Z,7.30
2019-04-04T07:33:23.659Z,5.80
2019-04-04T07:35:52.680Z,6.00
2019-04-04T07:38:50.937Z,6.90
2019-04-04T07:41:33.197Z,7.00
2019-04-04T07:44:02.107Z,7.30
2019-04-04T07:46:32.309Z,7.10
2019-04-04T07:49:07.157Z,7.00
2019-04-04T07:51:46.649Z,7.00
2019-04-04T07:54:18.958Z,7.30
2019-04-04T07:56:54.209Z,7.30
2019-04-04T07:59:31.338Z,7.40
2019-04-04T08:02:00.927Z,8.00
2019-04-04T08:04:31.385Z,8.20
2019-04-04T08:07:18.892Z,8.50
2019-04-04T08:09:47.989Z,9.10
2019-04-04T08:12:16.907Z,8.50
2019-04-04T08:14:50.102Z,9.00
2019-04-04T08:17:20.503Z,8.60
2019-04-04T08:19:59.617Z,8.90
2019-04-04T08:22:24.946Z,9.00
2019-04-04T08:24:56.162Z,9.20
2019-04-04T08:27:25.824Z,9.00
2019-04-04T08:29:55.602Z,8.70
2019-04-04T08:32:24.577Z,8.60
2019-04-04T08:35:03.881Z,8.50
2019-04-04T08:37:38.093Z,8.40
2019-04-04T08:40:46.103Z,8.80
2019-04-04T08:46:22.153Z,9.00
2019-04-04T08:48:52.629Z,8.40
2019-04-04T08:51:23.526Z,8.20
2019-04-04T08:53:53.083Z,8.50
2019-04-04T08:59:11.236Z,8.40
2019-04-04T09:01:45.706Z,8.70
2019-04-04T09:04:14.885Z,8.80
2019-04-04T09:06:46.357Z,9.00
2019-04-04T09:09:27.708Z,9.10
2019-04-04T09:11:58.487Z,9.00
2019-04-04T09:14:28.296Z,9.00
2019-04-04T09:16:57.288Z,8.90
2019-04-04T09:19:30.437Z,9.30
2019-04-04T09:22:00.100Z,9.20
2019-04-04T09:24:28.925Z,9.20
2019-04-04T09:27:11.916Z,9.10
2019-04-04T09:29:40.841Z,9.20
2019-04-04T09:32:10.001Z,9.40
2019-04-04T09:34:40.378Z,9.60
2019-04-04T09:37:10.580Z,9.00
2019-04-04T09:39:40.652Z,9.00
2019-04-04T09:42:11.257Z,9.20
2019-04-04T09:44:41.557Z,9.40
2019-04-04T09:47:11.507Z,9.40
2019-04-04T09:49:41.208Z,9.50
2019-04-04T09:52:14.185Z,9.80
2019-04-04T09:54:43.887Z,10.00
2019-04-04T09:57:14.324Z,9.90
2019-04-04T09:59:48.436Z,9.60
2019-04-04T10:02:18.886Z,9.70
2019-04-04T10:04:47.846Z,9.50
2019-04-04T10:07:18.067Z,9.90
2019-04-04T10:09:51.337Z,10.00
2019-04-04T10:12:21.998Z,9.80
2019-04-04T10:14:51.275Z,9.90
2019-04-04T10:17:21.774Z,9.90
2019-04-04T10:22:42.667Z,9.20
2019-04-04T10:25:14.291Z,8.40
2019-04-04T10:30:32.925Z,7.80
2019-04-04T10:33:42.095Z,7.90
2019-04-04T10:36:18.392Z,8.50
2019-04-04T10:38:54.559Z,8.80
2019-04-04T10:41:35.530Z,9.00
2019-04-04T10:44:04.458Z,9.40
2019-04-04T10:46:35.554Z,9.70
2019-04-04T10:49:04.946Z,9.80
2019-04-04T10:51:35.319Z,9.80
2019-04-04T10:54:06.187Z,9.70
2019-04-04T10:56:35.084Z,9.60
2019-04-04T10:59:07.478Z,9.50
2019-04-04T11:01:36.376Z,9.80
2019-04-04T11:04:07.817Z,9.90
2019-04-04T11:06:42.484Z,10.20
2019-04-04T11:09:13.631Z,10.30
2019-04-04T11:11:45.895Z,10.30
2019-04-04T11:14:20.134Z,10.40
2019-04-04T11:16:52.896Z,11.20
2019-04-04T11:19:31.196Z,11.20
2019-04-04T11:21:52.728Z,11.80
2019-04-04T11:24:22.407Z,11.70
2019-04-04T11:27:50.117Z,11.70
2019-04-04T11:29:50.539Z,11.40
2019-04-04T11:32:21.006Z,11.30
2019-04-04T11:34:53.800Z,11.40
2019-04-04T11:37:31.662Z,11.50
2019-04-04T11:40:18.217Z,11.40
2019-04-04T11:43:01.677Z,11.40
2019-04-04T11:45:34.942Z,10.80
2019-04-04T11:48:13.623Z,10.50
2019-04-04T11:50:48.220Z,10.60
2019-04-04T11:53:25.913Z,11.00
2019-04-04T11:56:00.337Z,11.30
2019-04-04T11:58:38.341Z,11.10
2019-04-04T12:01:26.853Z,10.50
2019-04-04T12:04:01.493Z,10.80
2019-04-04T12:06:44.305Z,11.10
2019-04-04T12:09:19.648Z,11.90
2019-04-04T12:14:51.077Z,11.70
2019-04-04T12:17:33.809Z,12.30
2019-04-04T12:20:09.140Z,12.50
2019-04-04T12:22:39.934Z,11.90
2019-04-04T12:25:12.384Z,11.40
2019-04-04T12:27:45.151Z,11.40
2019-04-04T12:30:24.989Z,11.40
2019-04-04T12:32:57.591Z,11.40
2019-04-04T12:35:46.117Z,12.00
2019-04-04T12:38:20.583Z,12.30
2019-04-04T12:40:57.329Z,12.40
2019-04-04T13:51:11.359Z,11.40
2019-04-04T13:57:30.974Z,11.70
2019-04-04T14:17:23.070Z,11.40
2019-04-04T14:23:00.904Z,10.90
2019-04-04T14:28:07.447Z,10.90
2019-04-04T14:30:41.082Z,11.40
2019-04-04T14:33:25.146Z,11.60
2019-04-04T14:36:09.475Z,11.60
2019-04-04T15:22:31.750Z,10.30
